sensor_id;sensor_type;location;lat;lon;timestamp;temperature;humidity
62809;DHT22;48848;39.002;-94.584;2023-03-14T00:00:14;20.80;34.20
62809;DHT22;48848;39.002;-94.584;2023-03-14T00:02:40;21.20;33.30
62809;DHT22;48848;39.002;-94.584;2023-03-14T00:05:06;20.30;32.80
62809;DHT22;48848;39.002;-94.584;2023-03-14T00:07:36;19.50;33.80
62809;DHT22;48848;39.002;-94.584;2023-03-14T00:10:03;19.00;34.10
62809;DHT22;48848;39.002;-94.584;2023-03-14T00:12:30;18.70;35.30
62809;DHT22;48848;39.002;-94.584;2023-03-14T00:14:55;18.50;35.30
62809;DHT22;48848;39.002;-94.584;2023-03-14T00:17:21;18.40;35.90
62809;DHT22;48848;39.002;-94.584;2023-03-14T00:19:48;18.70;36.50
62809;DHT22;48848;39.002;-94.584;2023-03-14T00:22:17;20.00;36.00
62809;DHT22;48848;39.002;-94.584;2023-03-14T00:24:43;20.70;34.30
62809;DHT22;48848;39.002;-94.584;2023-03-14T00:27:09;21.80;33.10
62809;DHT22;48848;39.002;-94.584;2023-03-14T00:29:35;21.70;31.80
62809;DHT22;48848;39.002;-94.584;2023-03-14T00:32:01;20.90;32.20
62809;DHT22;48848;39.002;-94.584;2023-03-14T00:34:30;19.90;33.70
62809;DHT22;48848;39.002;-94.584;2023-03-14T00:36:56;19.40;34.70
62809;DHT22;48848;39.002;-94.584;2023-03-14T00:39:22;19.00;36.10
62809;DHT22;48848;39.002;-94.584;2023-03-14T00:41:48;18.50;37.50
62809;DHT22;48848;39.002;-94.584;2023-03-14T00:44:14;18.20;38.80
62809;DHT22;48848;39.002;-94.584;2023-03-14T00:46:40;19.10;37.90
62809;DHT22;48848;39.002;-94.584;2023-03-14T00:49:05;20.30;36.70
62809;DHT22;48848;39.002;-94.584;2023-03-14T00:51:31;21.50;35.00
62809;DHT22;48848;39.002;-94.584;2023-03-14T00:53:57;22.00;34.10
62809;DHT22;48848;39.002;-94.584;2023-03-14T00:56:23;21.00;33.90
62809;DHT22;48848;39.002;-94.584;2023-03-14T00:58:49;19.90;35.60
62809;DHT22;48848;39.002;-94.584;2023-03-14T01:01:18;19.30;37.40
62809;DHT22;48848;39.002;-94.584;2023-03-14T01:03:44;18.70;38.50
62809;DHT22;48848;39.002;-94.584;2023-03-14T01:06:12;18.30;39.70
62809;DHT22;48848;39.002;-94.584;2023-03-14T01:08:38;18.10;41.00
62809;DHT22;48848;39.002;-94.584;2023-03-14T01:11:05;17.80;41.80
62809;DHT22;48848;39.002;-94.584;2023-03-14T01:13:31;17.60;42.60
62809;DHT22;48848;39.002;-94.584;2023-03-14T01:16:00;18.00;40.10
62809;DHT22;48848;39.002;-94.584;2023-03-14T01:18:26;18.60;38.80
62809;DHT22;48848;39.002;-94.584;2023-03-14T01:20:52;19.10;37.60
62809;DHT22;48848;39.002;-94.584;2023-03-14T01:23:18;20.10;36.80
62809;DHT22;48848;39.002;-94.584;2023-03-14T01:25:44;20.30;34.30
62809;DHT22;48848;39.002;-94.584;2023-03-14T01:28:10;19.60;35.30
62809;DHT22;48848;39.002;-94.584;2023-03-14T01:30:35;19.00;36.10
62809;DHT22;48848;39.002;-94.584;2023-03-14T01:33:01;18.60;36.80
62809;DHT22;48848;39.002;-94.584;2023-03-14T01:35:27;18.40;37.80
62809;DHT22;48848;39.002;-94.584;2023-03-14T01:37:53;18.30;38.30
62809;DHT22;48848;39.002;-94.584;2023-03-14T01:40:19;18.20;38.80
62809;DHT22;48848;39.002;-94.584;2023-03-14T01:42:58;18.10;39.10
62809;DHT22;48848;39.002;-94.584;2023-03-14T01:48:15;19.20;37.80
62809;DHT22;48848;39.002;-94.584;2023-03-14T01:50:40;20.70;35.90
62809;DHT22;48848;39.002;-94.584;2023-03-14T01:53:06;21.40;33.90
62809;DHT22;48848;39.002;-94.584;2023-03-14T01:55:32;20.50;32.90
62809;DHT22;48848;39.002;-94.584;2023-03-14T01:58:00;19.60;34.70
62809;DHT22;48848;39.002;-94.584;2023-03-14T02:00:26;19.00;36.20
62809;DHT22;48848;39.002;-94.584;2023-03-14T02:02:57;18.70;37.40
62809;DHT22;48848;39.002;-94.584;2023-03-14T02:05:34;18.40;38.10
62809;DHT22;48848;39.002;-94.584;2023-03-14T02:08:01;18.20;38.80
62809;DHT22;48848;39.002;-94.584;2023-03-14T02:10:28;18.10;39.30
62809;DHT22;48848;39.002;-94.584;2023-03-14T02:12:55;18.10;39.70
62809;DHT22;48848;39.002;-94.584;2023-03-14T02:15:22;18.10;39.50
62809;DHT22;48848;39.002;-94.584;2023-03-14T02:17:48;18.80;38.50
62809;DHT22;48848;39.002;-94.584;2023-03-14T02:22:49;20.70;35.30
62809;DHT22;48848;39.002;-94.584;2023-03-14T02:28:00;19.70;34.20
62809;DHT22;48848;39.002;-94.584;2023-03-14T02:30:27;19.00;35.80
62809;DHT22;48848;39.002;-94.584;2023-03-14T02:33:04;18.60;36.40
62809;DHT22;48848;39.002;-94.584;2023-03-14T02:36:04;18.40;37.10
62809;DHT22;48848;39.002;-94.584;2023-03-14T02:38:24;18.30;37.40
62809;DHT22;48848;39.002;-94.584;2023-03-14T02:40:52;18.20;37.90
62809;DHT22;48848;39.002;-94.584;2023-03-14T02:43:18;18.10;38.20
62809;DHT22;48848;39.002;-94.584;2023-03-14T02:45:45;18.00;38.10
62809;DHT22;48848;39.002;-94.584;2023-03-14T02:48:30;18.10;37.40
62809;DHT22;48848;39.002;-94.584;2023-03-14T02:50:57;18.90;37.80
62809;DHT22;48848;39.002;-94.584;2023-03-14T02:53:31;18.70;37.10
62809;DHT22;48848;39.002;-94.584;2023-03-14T02:55:58;18.60;37.20
62809;DHT22;48848;39.002;-94.584;2023-03-14T02:58:24;18.30;37.70
62809;DHT22;48848;39.002;-94.584;2023-03-14T03:00:50;17.80;38.80
62809;DHT22;48848;39.002;-94.584;2023-03-14T03:03:16;17.50;39.60
62809;DHT22;48848;39.002;-94.584;2023-03-14T03:05:42;17.30;40.20
62809;DHT22;48848;39.002;-94.584;2023-03-14T03:08:10;17.00;40.50
62809;DHT22;48848;39.002;-94.584;2023-03-14T03:10:36;16.90;40.90
62809;DHT22;48848;39.002;-94.584;2023-03-14T03:13:02;16.70;41.40
62809;DHT22;48848;39.002;-94.584;2023-03-14T03:15:28;16.60;41.60
62809;DHT22;48848;39.002;-94.584;2023-03-14T03:17:54;16.50;41.90
62809;DHT22;48848;39.002;-94.584;2023-03-14T03:20:20;16.40;42.20
62809;DHT22;48848;39.002;-94.584;2023-03-14T03:22:45;16.30;42.40
62809;DHT22;48848;39.002;-94.584;2023-03-14T03:25:11;16.20;42.50
62809;DHT22;48848;39.002;-94.584;2023-03-14T03:27:37;16.10;42.70
62809;DHT22;48848;39.002;-94.584;2023-03-14T03:30:04;16.00;42.90
62809;DHT22;48848;39.002;-94.584;2023-03-14T03:32:30;15.90;42.90
62809;DHT22;48848;39.002;-94.584;2023-03-14T03:34:56;15.90;43.10
62809;DHT22;48848;39.002;-94.584;2023-03-14T03:37:22;15.80;43.20
62809;DHT22;48848;39.002;-94.584;2023-03-14T03:39:49;15.70;43.40
62809;DHT22;48848;39.002;-94.584;2023-03-14T03:42:15;15.60;43.20
62809;DHT22;48848;39.002;-94.584;2023-03-14T03:44:41;15.60;43.50
62809;DHT22;48848;39.002;-94.584;2023-03-14T03:47:07;15.50;43.70
62809;DHT22;48848;39.002;-94.584;2023-03-14T03:49:33;15.50;43.70
62809;DHT22;48848;39.002;-94.584;2023-03-14T03:51:59;15.40;43.80
62809;DHT22;48848;39.002;-94.584;2023-03-14T03:54:25;15.30;43.90
62809;DHT22;48848;39.002;-94.584;2023-03-14T03:56:51;15.20;44.00
62809;DHT22;48848;39.002;-94.584;2023-03-14T03:59:17;15.20;44.10
62809;DHT22;48848;39.002;-94.584;2023-03-14T04:01:43;15.20;44.20
62809;DHT22;48848;39.002;-94.584;2023-03-14T04:04:09;15.10;44.20
62809;DHT22;48848;39.002;-94.584;2023-03-14T04:06:36;15.00;44.30
62809;DHT22;48848;39.002;-94.584;2023-03-14T04:09:02;15.00;45.20
62809;DHT22;48848;39.002;-94.584;2023-03-14T04:11:28;15.00;44.30
62809;DHT22;48848;39.002;-94.584;2023-03-14T04:13:54;14.90;44.50
62809;DHT22;48848;39.002;-94.584;2023-03-14T04:16:21;14.90;44.70
62809;DHT22;48848;39.002;-94.584;2023-03-14T04:18:47;14.80;44.70
62809;DHT22;48848;39.002;-94.584;2023-03-14T04:21:13;14.70;44.70
62809;DHT22;48848;39.002;-94.584;2023-03-14T04:23:39;14.60;44.80
62809;DHT22;48848;39.002;-94.584;2023-03-14T04:26:05;14.60;44.90
62809;DHT22;48848;39.002;-94.584;2023-03-14T04:28:31;14.60;44.80
62809;DHT22;48848;39.002;-94.584;2023-03-14T04:30:57;14.50;45.00
62809;DHT22;48848;39.002;-94.584;2023-03-14T04:33:23;14.50;45.00
62809;DHT22;48848;39.002;-94.584;2023-03-14T04:35:52;14.40;45.20
62809;DHT22;48848;39.002;-94.584;2023-03-14T04:38:18;14.40;45.10
62809;DHT22;48848;39.002;-94.584;2023-03-14T04:40:44;14.30;45.20
62809;DHT22;48848;39.002;-94.584;2023-03-14T04:43:10;14.20;45.20
62809;DHT22;48848;39.002;-94.584;2023-03-14T04:45:36;14.20;45.20
62809;DHT22;48848;39.002;-94.584;2023-03-14T04:48:03;14.20;45.30
62809;DHT22;48848;39.002;-94.584;2023-03-14T04:50:28;14.10;45.30
62809;DHT22;48848;39.002;-94.584;2023-03-14T04:52:54;14.10;45.40
62809;DHT22;48848;39.002;-94.584;2023-03-14T04:55:20;14.00;45.60
62809;DHT22;48848;39.002;-94.584;2023-03-14T04:57:46;14.00;45.50
62809;DHT22;48848;39.002;-94.584;2023-03-14T05:00:12;14.00;45.60
62809;DHT22;48848;39.002;-94.584;2023-03-14T05:02:38;13.90;45.50
62809;DHT22;48848;39.002;-94.584;2023-03-14T05:05:04;13.90;45.50
62809;DHT22;48848;39.002;-94.584;2023-03-14T05:07:30;13.80;46.60
62809;DHT22;48848;39.002;-94.584;2023-03-14T05:09:55;13.80;45.80
62809;DHT22;48848;39.002;-94.584;2023-03-14T05:12:21;13.80;45.90
62809;DHT22;48848;39.002;-94.584;2023-03-14T05:14:47;13.70;45.90
62809;DHT22;48848;39.002;-94.584;2023-03-14T05:17:13;13.60;45.90
62809;DHT22;48848;39.002;-94.584;2023-03-14T05:19:40;13.60;46.00
62809;DHT22;48848;39.002;-94.584;2023-03-14T05:22:06;13.60;46.00
62809;DHT22;48848;39.002;-94.584;2023-03-14T05:24:32;13.50;46.10
62809;DHT22;48848;39.002;-94.584;2023-03-14T05:26:58;13.50;46.20
62809;DHT22;48848;39.002;-94.584;2023-03-14T05:29:24;13.40;46.20
62809;DHT22;48848;39.002;-94.584;2023-03-14T05:31:49;13.40;46.10
62809;DHT22;48848;39.002;-94.584;2023-03-14T05:34:15;13.40;46.30
62809;DHT22;48848;39.002;-94.584;2023-03-14T05:36:41;13.30;46.40
62809;DHT22;48848;39.002;-94.584;2023-03-14T05:39:07;13.30;46.20
62809;DHT22;48848;39.002;-94.584;2023-03-14T05:41:33;13.30;46.50
62809;DHT22;48848;39.002;-94.584;2023-03-14T05:43:59;13.20;46.50
62809;DHT22;48848;39.002;-94.584;2023-03-14T05:46:25;13.20;46.60
62809;DHT22;48848;39.002;-94.584;2023-03-14T05:48:51;13.10;46.50
62809;DHT22;48848;39.002;-94.584;2023-03-14T05:51:16;13.10;47.70
62809;DHT22;48848;39.002;-94.584;2023-03-14T05:53:42;13.10;46.70
62809;DHT22;48848;39.002;-94.584;2023-03-14T05:56:08;13.00;46.70
62809;DHT22;48848;39.002;-94.584;2023-03-14T05:58:34;13.00;46.80
62809;DHT22;48848;39.002;-94.584;2023-03-14T06:01:03;12.90;46.80
62809;DHT22;48848;39.002;-94.584;2023-03-14T06:03:29;12.90;46.90
62809;DHT22;48848;39.002;-94.584;2023-03-14T06:05:55;12.90;46.90
62809;DHT22;48848;39.002;-94.584;2023-03-14T06:08:21;12.80;46.80
62809;DHT22;48848;39.002;-94.584;2023-03-14T06:10:47;12.80;47.00
62809;DHT22;48848;39.002;-94.584;2023-03-14T06:13:13;12.80;46.90
62809;DHT22;48848;39.002;-94.584;2023-03-14T06:15:38;13.20;46.00
62809;DHT22;48848;39.002;-94.584;2023-03-14T06:18:04;13.90;44.20
62809;DHT22;48848;39.002;-94.584;2023-03-14T06:20:30;14.50;42.50
62809;DHT22;48848;39.002;-94.584;2023-03-14T06:22:56;14.80;41.60
62809;DHT22;48848;39.002;-94.584;2023-03-14T06:25:22;14.50;42.20
62809;DHT22;48848;39.002;-94.584;2023-03-14T06:27:48;14.10;43.70
62809;DHT22;48848;39.002;-94.584;2023-03-14T06:30:13;13.70;44.40
62809;DHT22;48848;39.002;-94.584;2023-03-14T06:32:39;13.50;45.10
62809;DHT22;48848;39.002;-94.584;2023-03-14T06:35:05;13.30;45.70
62809;DHT22;48848;39.002;-94.584;2023-03-14T06:37:31;13.10;46.00
62809;DHT22;48848;39.002;-94.584;2023-03-14T06:39:57;13.00;46.10
62809;DHT22;48848;39.002;-94.584;2023-03-14T06:42:23;13.00;46.40
62809;DHT22;48848;39.002;-94.584;2023-03-14T06:44:49;12.90;46.70
62809;DHT22;48848;39.002;-94.584;2023-03-14T06:47:14;12.80;46.80
62809;DHT22;48848;39.002;-94.584;2023-03-14T06:49:40;12.80;47.00
62809;DHT22;48848;39.002;-94.584;2023-03-14T06:52:06;12.70;46.80
62809;DHT22;48848;39.002;-94.584;2023-03-14T06:54:32;13.10;46.30
62809;DHT22;48848;39.002;-94.584;2023-03-14T06:56:58;13.80;44.40
62809;DHT22;48848;39.002;-94.584;2023-03-14T06:59:24;14.40;42.80
62809;DHT22;48848;39.002;-94.584;2023-03-14T07:01:50;14.70;41.70
62809;DHT22;48848;39.002;-94.584;2023-03-14T07:04:16;14.40;42.10
62809;DHT22;48848;39.002;-94.584;2023-03-14T07:06:42;14.00;43.80
62809;DHT22;48848;39.002;-94.584;2023-03-14T07:09:11;13.70;44.40
62809;DHT22;48848;39.002;-94.584;2023-03-14T07:11:37;13.40;45.20
62809;DHT22;48848;39.002;-94.584;2023-03-14T07:14:03;13.20;45.60
62809;DHT22;48848;39.002;-94.584;2023-03-14T07:16:29;13.10;46.10
62809;DHT22;48848;39.002;-94.584;2023-03-14T07:18:58;12.90;46.30
62809;DHT22;48848;39.002;-94.584;2023-03-14T07:21:24;12.80;46.60
62809;DHT22;48848;39.002;-94.584;2023-03-14T07:23:50;12.70;46.90
62809;DHT22;48848;39.002;-94.584;2023-03-14T07:26:16;12.70;47.00
62809;DHT22;48848;39.002;-94.584;2023-03-14T07:28:42;12.70;46.60
62809;DHT22;48848;39.002;-94.584;2023-03-14T07:31:08;13.20;45.30
62809;DHT22;48848;39.002;-94.584;2023-03-14T07:33:33;14.00;43.50
62809;DHT22;48848;39.002;-94.584;2023-03-14T07:35:59;14.50;42.10
62809;DHT22;48848;39.002;-94.584;2023-03-14T07:38:25;14.60;41.60
62809;DHT22;48848;39.002;-94.584;2023-03-14T07:40:57;14.20;42.70
62809;DHT22;48848;39.002;-94.584;2023-03-14T07:43:23;13.70;43.80
62809;DHT22;48848;39.002;-94.584;2023-03-14T07:45:49;13.40;44.70
62809;DHT22;48848;39.002;-94.584;2023-03-14T07:48:15;13.20;45.40
62809;DHT22;48848;39.002;-94.584;2023-03-14T07:50:40;13.00;45.80
62809;DHT22;48848;39.002;-94.584;2023-03-14T07:53:06;12.90;46.20
62809;DHT22;48848;39.002;-94.584;2023-03-14T07:55:32;12.80;46.60
62809;DHT22;48848;39.002;-94.584;2023-03-14T07:57:58;12.70;46.70
62809;DHT22;48848;39.002;-94.584;2023-03-14T08:00:24;12.70;46.50
62809;DHT22;48848;39.002;-94.584;2023-03-14T08:02:50;13.30;45.10
62809;DHT22;48848;39.002;-94.584;2023-03-14T08:05:16;14.00;43.40
62809;DHT22;48848;39.002;-94.584;2023-03-14T08:07:42;14.50;42.00
62809;DHT22;48848;39.002;-94.584;2023-03-14T08:10:08;14.50;42.60
62809;DHT22;48848;39.002;-94.584;2023-03-14T08:12:34;14.10;42.70
62809;DHT22;48848;39.002;-94.584;2023-03-14T08:15:00;13.70;44.10
62809;DHT22;48848;39.002;-94.584;2023-03-14T08:17:26;13.40;44.70
62809;DHT22;48848;39.002;-94.584;2023-03-14T08:19:52;13.10;45.40
62809;DHT22;48848;39.002;-94.584;2023-03-14T08:22:18;13.00;45.90
62809;DHT22;48848;39.002;-94.584;2023-03-14T08:24:43;12.90;46.40
62809;DHT22;48848;39.002;-94.584;2023-03-14T08:27:09;12.80;46.70
62809;DHT22;48848;39.002;-94.584;2023-03-14T08:29:35;12.60;46.90
62809;DHT22;48848;39.002;-94.584;2023-03-14T08:32:01;12.60;46.50
62809;DHT22;48848;39.002;-94.584;2023-03-14T08:34:27;13.10;45.60
62809;DHT22;48848;39.002;-94.584;2023-03-14T08:36:53;13.80;43.80
62809;DHT22;48848;39.002;-94.584;2023-03-14T08:39:20;14.30;42.20
62809;DHT22;48848;39.002;-94.584;2023-03-14T08:41:46;14.60;41.20
62809;DHT22;48848;39.002;-94.584;2023-03-14T08:44:12;14.30;42.00
62809;DHT22;48848;39.002;-94.584;2023-03-14T08:46:38;13.80;43.30
62809;DHT22;48848;39.002;-94.584;2023-03-14T08:49:04;13.40;44.30
62809;DHT22;48848;39.002;-94.584;2023-03-14T08:51:30;13.10;45.00
62809;DHT22;48848;39.002;-94.584;2023-03-14T08:53:56;13.00;45.60
62809;DHT22;48848;39.002;-94.584;2023-03-14T08:56:21;12.90;46.10
62809;DHT22;48848;39.002;-94.584;2023-03-14T08:58:47;12.70;46.50
62809;DHT22;48848;39.002;-94.584;2023-03-14T09:01:13;12.60;46.80
62809;DHT22;48848;39.002;-94.584;2023-03-14T09:03:39;12.60;46.50
62809;DHT22;48848;39.002;-94.584;2023-03-14T09:06:06;13.20;45.40
62809;DHT22;48848;39.002;-94.584;2023-03-14T09:08:32;13.80;43.20
62809;DHT22;48848;39.002;-94.584;2023-03-14T09:10:58;14.30;42.10
62809;DHT22;48848;39.002;-94.584;2023-03-14T09:13:24;14.60;41.40
62809;DHT22;48848;39.002;-94.584;2023-03-14T09:15:55;14.20;41.90
62809;DHT22;48848;39.002;-94.584;2023-03-14T09:18:21;13.80;43.60
62809;DHT22;48848;39.002;-94.584;2023-03-14T09:20:48;13.40;44.50
62809;DHT22;48848;39.002;-94.584;2023-03-14T09:23:14;13.10;45.00
62809;DHT22;48848;39.002;-94.584;2023-03-14T09:25:40;12.90;45.50
62809;DHT22;48848;39.002;-94.584;2023-03-14T09:28:06;12.80;46.10
62809;DHT22;48848;39.002;-94.584;2023-03-14T09:30:31;12.70;46.40
62809;DHT22;48848;39.002;-94.584;2023-03-14T09:32:57;12.60;46.40
62809;DHT22;48848;39.002;-94.584;2023-03-14T09:35:24;12.90;45.80
62809;DHT22;48848;39.002;-94.584;2023-03-14T09:37:50;13.50;44.20
62809;DHT22;48848;39.002;-94.584;2023-03-14T09:40:17;14.10;42.50
62809;DHT22;48848;39.002;-94.584;2023-03-14T09:42:43;14.60;41.50
62809;DHT22;48848;39.002;-94.584;2023-03-14T09:45:15;14.30;41.40
62809;DHT22;48848;39.002;-94.584;2023-03-14T09:47:42;13.90;43.00
62809;DHT22;48848;39.002;-94.584;2023-03-14T09:50:15;13.40;43.90
62809;DHT22;48848;39.002;-94.584;2023-03-14T09:52:42;13.10;44.80
62809;DHT22;48848;39.002;-94.584;2023-03-14T09:57:37;12.80;46.00
62809;DHT22;48848;39.002;-94.584;2023-03-14T10:00:13;12.60;46.30
62809;DHT22;48848;39.002;-94.584;2023-03-14T10:02:42;12.60;46.40
62809;DHT22;48848;39.002;-94.584;2023-03-14T10:05:15;12.70;45.80
62809;DHT22;48848;39.002;-94.584;2023-03-14T10:07:41;13.50;44.20
62809;DHT22;48848;39.002;-94.584;2023-03-14T10:10:11;14.10;42.40
62809;DHT22;48848;39.002;-94.584;2023-03-14T10:12:39;14.50;41.40
62809;DHT22;48848;39.002;-94.584;2023-03-14T10:15:09;14.30;41.40
62809;DHT22;48848;39.002;-94.584;2023-03-14T10:17:39;13.90;42.80
62809;DHT22;48848;39.002;-94.584;2023-03-14T10:20:05;13.40;43.80
62809;DHT22;48848;39.002;-94.584;2023-03-14T10:22:31;13.10;44.70
62809;DHT22;48848;39.002;-94.584;2023-03-14T10:25:01;12.90;45.40
62809;DHT22;48848;39.002;-94.584;2023-03-14T10:27:29;12.70;45.80
62809;DHT22;48848;39.002;-94.584;2023-03-14T10:30:03;12.60;46.30
62809;DHT22;48848;39.002;-94.584;2023-03-14T10:32:37;12.50;46.10
62809;DHT22;48848;39.002;-94.584;2023-03-14T10:35:05;12.80;45.70
62809;DHT22;48848;39.002;-94.584;2023-03-14T10:37:31;13.60;44.00
62809;DHT22;48848;39.002;-94.584;2023-03-14T10:40:00;14.10;42.30
62809;DHT22;48848;39.002;-94.584;2023-03-14T10:42:31;14.50;41.40
62809;DHT22;48848;39.002;-94.584;2023-03-14T10:45:00;14.80;40.70
62809;DHT22;48848;39.002;-94.584;2023-03-14T10:47:27;15.10;40.10
62809;DHT22;48848;39.002;-94.584;2023-03-14T10:49:54;15.40;39.60
62809;DHT22;48848;39.002;-94.584;2023-03-14T10:54:56;16.10;38.70
62809;DHT22;48848;39.002;-94.584;2023-03-14T10:57:22;16.40;38.30
62809;DHT22;48848;39.002;-94.584;2023-03-14T10:59:48;16.70;37.90
62809;DHT22;48848;39.002;-94.584;2023-03-14T11:04:55;17.00;37.30
62809;DHT22;48848;39.002;-94.584;2023-03-14T11:07:24;17.30;37.00
62809;DHT22;48848;39.002;-94.584;2023-03-14T11:09:59;17.30;36.60
62809;DHT22;48848;39.002;-94.584;2023-03-14T11:12:35;16.70;36.70
62809;DHT22;48848;39.002;-94.584;2023-03-14T11:22:41;14.80;41.80
62809;DHT22;48848;39.002;-94.584;2023-03-14T11:25:26;15.20;40.70
62809;DHT22;48848;39.002;-94.584;2023-03-14T11:28:01;15.70;39.90
62809;DHT22;48848;39.002;-94.584;2023-03-14T11:33:14;16.60;38.10
62809;DHT22;48848;39.002;-94.584;2023-03-14T11:35:49;16.30;37.90
62809;DHT22;48848;39.002;-94.584;2023-03-14T11:40:46;15.10;40.90
62809;DHT22;48848;39.002;-94.584;2023-03-14T11:43:23;14.70;41.70
62809;DHT22;48848;39.002;-94.584;2023-03-14T11:45:51;14.40;42.80
62809;DHT22;48848;39.002;-94.584;2023-03-14T11:48:22;14.70;42.20
62809;DHT22;48848;39.002;-94.584;2023-03-14T11:50:51;15.20;41.00
62809;DHT22;48848;39.002;-94.584;2023-03-14T11:53:19;15.90;40.00
62809;DHT22;48848;39.002;-94.584;2023-03-14T11:55:47;16.30;38.90
62809;DHT22;48848;39.002;-94.584;2023-03-14T11:58:17;16.40;38.10
62809;DHT22;48848;39.002;-94.584;2023-03-14T12:00:45;16.10;38.50
62809;DHT22;48848;39.002;-94.584;2023-03-14T12:08:27;14.60;41.90
62809;DHT22;48848;39.002;-94.584;2023-03-14T12:10:58;14.30;42.60
62809;DHT22;48848;39.002;-94.584;2023-03-14T12:13:27;14.50;43.00
62809;DHT22;48848;39.002;-94.584;2023-03-14T12:15:54;15.00;41.40
62809;DHT22;48848;39.002;-94.584;2023-03-14T12:18:54;15.50;40.00
62809;DHT22;48848;39.002;-94.584;2023-03-14T12:21:13;15.90;39.40
62809;DHT22;48848;39.002;-94.584;2023-03-14T12:28:37;15.50;40.10
62809;DHT22;48848;39.002;-94.584;2023-03-14T12:33:47;14.60;42.00
62809;DHT22;48848;39.002;-94.584;2023-03-14T12:36:39;14.30;42.60
62809;DHT22;48848;39.002;-94.584;2023-03-14T12:39:00;14.30;42.80
62809;DHT22;48848;39.002;-94.584;2023-03-14T12:41:35;15.00;41.50
62809;DHT22;48848;39.002;-94.584;2023-03-14T12:46:46;16.00;39.70
62809;DHT22;48848;39.002;-94.584;2023-03-14T12:49:12;16.20;38.80
62809;DHT22;48848;39.002;-94.584;2023-03-14T12:51:40;15.70;39.60
62809;DHT22;48848;39.002;-94.584;2023-03-14T12:56:45;14.80;43.00
62809;DHT22;48848;39.002;-94.584;2023-03-14T12:59:18;14.40;42.90
62809;DHT22;48848;39.002;-94.584;2023-03-14T13:01:54;14.30;43.30
62809;DHT22;48848;39.002;-94.584;2023-03-14T13:04:26;14.10;43.60
62809;DHT22;48848;39.002;-94.584;2023-03-14T13:06:56;14.50;43.10
62809;DHT22;48848;39.002;-94.584;2023-03-14T13:11:54;15.80;39.80
62809;DHT22;48848;39.002;-94.584;2023-03-14T13:14:21;16.10;39.10
62809;DHT22;48848;39.002;-94.584;2023-03-14T13:16:47;15.80;39.60
62809;DHT22;48848;39.002;-94.584;2023-03-14T13:19:21;15.30;40.90
62809;DHT22;48848;39.002;-94.584;2023-03-14T13:21:49;14.80;41.60
62809;DHT22;48848;39.002;-94.584;2023-03-14T13:24:25;14.50;42.10
62809;DHT22;48848;39.002;-94.584;2023-03-14T13:26:55;14.20;43.20
62809;DHT22;48848;39.002;-94.584;2023-03-14T13:29:21;14.10;43.70
62809;DHT22;48848;39.002;-94.584;2023-03-14T13:31:48;14.50;43.10
62809;DHT22;48848;39.002;-94.584;2023-03-14T13:34:15;15.10;41.40
62809;DHT22;48848;39.002;-94.584;2023-03-14T13:36:42;15.70;40.20
62809;DHT22;48848;39.002;-94.584;2023-03-14T13:39:17;16.20;39.20
62809;DHT22;48848;39.002;-94.584;2023-03-14T13:41:43;16.00;39.10
62809;DHT22;48848;39.002;-94.584;2023-03-14T13:44:16;15.40;40.40
62809;DHT22;48848;39.002;-94.584;2023-03-14T13:46:42;15.00;41.60
62809;DHT22;48848;39.002;-94.584;2023-03-14T13:49:12;14.60;42.40
62809;DHT22;48848;39.002;-94.584;2023-03-14T13:51:42;14.40;42.90
62809;DHT22;48848;39.002;-94.584;2023-03-14T13:54:18;14.20;43.40
62809;DHT22;48848;39.002;-94.584;2023-03-14T13:56:44;14.40;43.50
62809;DHT22;48848;39.002;-94.584;2023-03-14T13:59:27;15.10;41.90
62809;DHT22;48848;39.002;-94.584;2023-03-14T14:01:53;15.70;40.70
62809;DHT22;48848;39.002;-94.584;2023-03-14T14:04:23;16.10;39.60
62809;DHT22;48848;39.002;-94.584;2023-03-14T14:06:57;15.90;39.70
62809;DHT22;48848;39.002;-94.584;2023-03-14T14:09:24;15.40;41.00
62809;DHT22;48848;39.002;-94.584;2023-03-14T14:17:12;14.50;43.30
62809;DHT22;48848;39.002;-94.584;2023-03-14T14:19:39;14.40;43.70
62809;DHT22;48848;39.002;-94.584;2023-03-14T14:22:08;14.20;44.20
62809;DHT22;48848;39.002;-94.584;2023-03-14T14:24:34;14.20;45.00
62809;DHT22;48848;39.002;-94.584;2023-03-14T14:27:47;14.10;44.80
62809;DHT22;48848;39.002;-94.584;2023-03-14T14:30:00;14.00;45.00
62809;DHT22;48848;39.002;-94.584;2023-03-14T14:32:26;14.00;45.00
62809;DHT22;48848;39.002;-94.584;2023-03-14T14:34:56;13.90;45.40
62809;DHT22;48848;39.002;-94.584;2023-03-14T14:39:49;13.70;45.50
62809;DHT22;48848;39.002;-94.584;2023-03-14T14:42:16;13.70;46.20
62809;DHT22;48848;39.002;-94.584;2023-03-14T14:44:42;13.60;46.10
62809;DHT22;48848;39.002;-94.584;2023-03-14T14:47:13;13.60;46.20
62809;DHT22;48848;39.002;-94.584;2023-03-14T14:49:39;13.60;46.20
62809;DHT22;48848;39.002;-94.584;2023-03-14T14:52:09;13.60;46.30
62809;DHT22;48848;39.002;-94.584;2023-03-14T14:54:42;13.50;46.60
62809;DHT22;48848;39.002;-94.584;2023-03-14T14:57:18;13.50;46.60
62809;DHT22;48848;39.002;-94.584;2023-03-14T14:59:45;13.50;46.60
62809;DHT22;48848;39.002;-94.584;2023-03-14T15:02:35;13.50;46.50
62809;DHT22;48848;39.002;-94.584;2023-03-14T15:04:59;13.40;46.60
62809;DHT22;48848;39.002;-94.584;2023-03-14T15:07:25;13.40;47.00
62809;DHT22;48848;39.002;-94.584;2023-03-14T15:09:51;13.30;46.40
62809;DHT22;48848;39.002;-94.584;2023-03-14T15:12:17;13.30;46.80
62809;DHT22;48848;39.002;-94.584;2023-03-14T15:14:42;13.30;47.10
62809;DHT22;48848;39.002;-94.584;2023-03-14T15:17:10;13.20;46.60
62809;DHT22;48848;39.002;-94.584;2023-03-14T15:19:36;13.20;46.80
62809;DHT22;48848;39.002;-94.584;2023-03-14T15:22:02;13.20;48.20
62809;DHT22;48848;39.002;-94.584;2023-03-14T15:24:28;13.20;46.80
62809;DHT22;48848;39.002;-94.584;2023-03-14T15:26:53;13.80;47.20
62809;DHT22;48848;39.002;-94.584;2023-03-14T15:29:19;14.50;44.40
62809;DHT22;48848;39.002;-94.584;2023-03-14T15:31:45;15.10;41.50
62809;DHT22;48848;39.002;-94.584;2023-03-14T15:34:11;15.10;41.60
62809;DHT22;48848;39.002;-94.584;2023-03-14T15:36:37;14.80;42.70
62809;DHT22;48848;39.002;-94.584;2023-03-14T15:39:05;14.40;42.90
62809;DHT22;48848;39.002;-94.584;2023-03-14T15:41:31;14.20;44.30
62809;DHT22;48848;39.002;-94.584;2023-03-14T15:43:57;14.00;44.70
62809;DHT22;48848;39.002;-94.584;2023-03-14T15:46:23;13.90;45.30
62809;DHT22;48848;39.002;-94.584;2023-03-14T15:48:50;13.80;45.20
62809;DHT22;48848;39.002;-94.584;2023-03-14T15:51:16;13.80;45.60
62809;DHT22;48848;39.002;-94.584;2023-03-14T15:53:42;13.80;45.50
62809;DHT22;48848;39.002;-94.584;2023-03-14T15:56:11;13.80;45.80
62809;DHT22;48848;39.002;-94.584;2023-03-14T15:58:37;13.70;45.80
62809;DHT22;48848;39.002;-94.584;2023-03-14T16:01:06;13.70;45.80